sensor_id;sensor_type;location;lat;lon;timestamp;P1;durP1;ratioP1;P2;durP2;ratioP2
75169;SDS011;63749;49.186;9.222;2023-01-29T00:01:49;11.83;;;5.40;;
75169;SDS011;63749;49.186;9.222;2023-01-29T00:04:14;11.95;;;5.30;;
75169;SDS011;63749;49.186;9.222;2023-01-29T00:06:40;9.23;;;5.00;;
75169;SDS011;63749;49.186;9.222;2023-01-29T00:09:05;8.07;;;4.53;;
75169;SDS011;63749;49.186;9.222;2023-01-29T00:11:30;10.00;;;5.00;;
75169;SDS011;63749;49.186;9.222;2023-01-29T00:13:59;8.30;;;4.45;;
75169;SDS011;63749;49.186;9.222;2023-01-29T00:16:24;10.50;;;4.67;;
75169;SDS011;63749;49.186;9.222;2023-01-29T00:18:50;10.10;;;4.65;;
75169;SDS011;63749;49.186;9.222;2023-01-29T00:21:16;9.37;;;5.20;;
75169;SDS011;63749;49.186;9.222;2023-01-29T00:23:43;10.88;;;5.03;;
75169;SDS011;63749;49.186;9.222;2023-01-29T00:26:09;10.38;;;4.57;;
75169;SDS011;63749;49.186;9.222;2023-01-29T00:28:35;9.60;;;4.60;;
75169;SDS011;63749;49.186;9.222;2023-01-29T00:31:08;10.40;;;4.50;;
75169;SDS011;63749;49.186;9.222;2023-01-29T00:33:34;9.45;;;4.75;;
75169;SDS011;63749;49.186;9.222;2023-01-29T00:36:01;9.93;;;4.47;;
75169;SDS011;63749;49.186;9.222;2023-01-29T00:38:28;10.65;;;4.70;;
75169;SDS011;63749;49.186;9.222;2023-01-29T00:40:53;8.90;;;4.87;;
75169;SDS011;63749;49.186;9.222;2023-01-29T00:43:37;9.18;;;4.93;;
75169;SDS011;63749;49.186;9.222;2023-01-29T00:46:21;10.98;;;5.35;;
75169;SDS011;63749;49.186;9.222;2023-01-29T00:48:46;11.37;;;5.27;;
75169;SDS011;63749;49.186;9.222;2023-01-29T00:51:12;10.93;;;5.13;;
75169;SDS011;63749;49.186;9.222;2023-01-29T00:53:37;10.00;;;5.30;;
75169;SDS011;63749;49.186;9.222;2023-01-29T00:56:03;10.97;;;5.10;;
75169;SDS011;63749;49.186;9.222;2023-01-29T00:58:28;8.77;;;4.90;;
75169;SDS011;63749;49.186;9.222;2023-01-29T01:00:58;9.97;;;4.60;;
75169;SDS011;63749;49.186;9.222;2023-01-29T01:03:25;9.80;;;4.88;;
75169;SDS011;63749;49.186;9.222;2023-01-29T01:06:00;10.82;;;5.07;;
75169;SDS011;63749;49.186;9.222;2023-01-29T01:08:27;9.05;;;4.60;;
75169;SDS011;63749;49.186;9.222;2023-01-29T01:11:15;9.40;;;4.80;;
75169;SDS011;63749;49.186;9.222;2023-01-29T01:13:40;10.18;;;4.82;;
75169;SDS011;63749;49.186;9.222;2023-01-29T01:16:10;9.90;;;4.80;;
75169;SDS011;63749;49.186;9.222;2023-01-29T01:18:37;11.20;;;5.10;;
75169;SDS011;63749;49.186;9.222;2023-01-29T01:21:03;10.73;;;4.70;;
75169;SDS011;63749;49.186;9.222;2023-01-29T01:23:28;9.00;;;4.95;;
75169;SDS011;63749;49.186;9.222;2023-01-29T01:25:54;8.47;;;4.80;;
75169;SDS011;63749;49.186;9.222;2023-01-29T01:28:19;10.53;;;4.97;;
75169;SDS011;63749;49.186;9.222;2023-01-29T01:30:45;9.00;;;4.97;;
75169;SDS011;63749;49.186;9.222;2023-01-29T01:33:10;10.23;;;4.87;;
75169;SDS011;63749;49.186;9.222;2023-01-29T01:35:36;10.03;;;5.00;;
75169;SDS011;63749;49.186;9.222;2023-01-29T01:38:02;12.85;;;4.82;;
75169;SDS011;63749;49.186;9.222;2023-01-29T01:40:28;9.87;;;5.10;;
75169;SDS011;63749;49.186;9.222;2023-01-29T01:42:54;8.50;;;4.97;;
75169;SDS011;63749;49.186;9.222;2023-01-29T01:50:55;9.95;;;4.32;;
75169;SDS011;63749;49.186;9.222;2023-01-29T01:53:28;11.43;;;4.80;;
75169;SDS011;63749;49.186;9.222;2023-01-29T01:56:05;7.50;;;3.73;;
75169;SDS011;63749;49.186;9.222;2023-01-29T01:58:48;9.23;;;4.75;;
75169;SDS011;63749;49.186;9.222;2023-01-29T02:01:17;9.82;;;5.03;;
75169;SDS011;63749;49.186;9.222;2023-01-29T02:03:52;10.90;;;4.57;;
75169;SDS011;63749;49.186;9.222;2023-01-29T02:06:39;11.32;;;4.90;;
75169;SDS011;63749;49.186;9.222;2023-01-29T02:09:25;10.77;;;4.80;;
75169;SDS011;63749;49.186;9.222;2023-01-29T02:12:10;10.45;;;5.07;;
75169;SDS011;63749;49.186;9.222;2023-01-29T02:14:37;10.10;;;5.20;;
75169;SDS011;63749;49.186;9.222;2023-01-29T02:17:04;9.65;;;5.07;;
75169;SDS011;63749;49.186;9.222;2023-01-29T02:19:41;8.80;;;4.60;;
75169;SDS011;63749;49.186;9.222;2023-01-29T02:30:43;10.20;;;5.10;;
75169;SDS011;63749;49.186;9.222;2023-01-29T02:47:22;8.80;;;4.70;;
75169;SDS011;63749;49.186;9.222;2023-01-29T02:50:48;10.03;;;4.83;;
75169;SDS011;63749;49.186;9.222;2023-01-29T02:52:58;9.73;;;5.10;;
75169;SDS011;63749;49.186;9.222;2023-01-29T02:55:37;9.07;;;5.10;;
75169;SDS011;63749;49.186;9.222;2023-01-29T02:58:12;10.95;;;5.70;;
75169;SDS011;63749;49.186;9.222;2023-01-29T03:00:46;12.48;;;5.00;;
75169;SDS011;63749;49.186;9.222;2023-01-29T03:03:13;9.57;;;4.77;;
75169;SDS011;63749;49.186;9.222;2023-01-29T03:08:40;9.27;;;4.70;;
75169;SDS011;63749;49.186;9.222;2023-01-29T03:11:12;8.85;;;4.68;;
75169;SDS011;63749;49.186;9.222;2023-01-29T03:13:44;9.52;;;5.05;;
75169;SDS011;63749;49.186;9.222;2023-01-29T03:16:35;9.20;;;4.60;;
75169;SDS011;63749;49.186;9.222;2023-01-29T03:19:07;9.25;;;4.60;;
75169;SDS011;63749;49.186;9.222;2023-01-29T03:21:57;7.75;;;4.15;;
75169;SDS011;63749;49.186;9.222;2023-01-29T03:27:20;8.88;;;4.82;;
75169;SDS011;63749;49.186;9.222;2023-01-29T03:30:08;10.00;;;5.03;;
75169;SDS011;63749;49.186;9.222;2023-01-29T03:32:53;9.02;;;5.03;;
75169;SDS011;63749;49.186;9.222;2023-01-29T03:35:22;9.75;;;4.93;;
75169;SDS011;63749;49.186;9.222;2023-01-29T03:38:00;9.32;;;5.00;;
75169;SDS011;63749;49.186;9.222;2023-01-29T03:40:34;9.65;;;5.07;;
75169;SDS011;63749;49.186;9.222;2023-01-29T03:43:11;9.13;;;5.07;;
75169;SDS011;63749;49.186;9.222;2023-01-29T03:53:50;11.23;;;5.05;;
75169;SDS011;63749;49.186;9.222;2023-01-29T03:56:33;11.47;;;5.23;;
75169;SDS011;63749;49.186;9.222;2023-01-29T04:02:14;12.05;;;5.30;;
75169;SDS011;63749;49.186;9.222;2023-01-29T04:04:46;10.82;;;4.93;;
75169;SDS011;63749;49.186;9.222;2023-01-29T04:07:16;9.35;;;5.10;;
75169;SDS011;63749;49.186;9.222;2023-01-29T04:09:53;10.23;;;5.03;;
75169;SDS011;63749;49.186;9.222;2023-01-29T04:12:25;10.20;;;5.05;;
75169;SDS011;63749;49.186;9.222;2023-01-29T04:14:54;11.10;;;5.40;;
75169;SDS011;63749;49.186;9.222;2023-01-29T04:17:26;9.85;;;5.20;;
75169;SDS011;63749;49.186;9.222;2023-01-29T04:19:57;10.18;;;4.75;;
75169;SDS011;63749;49.186;9.222;2023-01-29T04:22:26;13.27;;;5.23;;
75169;SDS011;63749;49.186;9.222;2023-01-29T04:24:57;10.15;;;5.07;;
75169;SDS011;63749;49.186;9.222;2023-01-29T04:30:06;10.45;;;5.00;;
75169;SDS011;63749;49.186;9.222;2023-01-29T04:47:17;10.45;;;5.30;;
75169;SDS011;63749;49.186;9.222;2023-01-29T04:52:41;11.20;;;5.45;;
75169;SDS011;63749;49.186;9.222;2023-01-29T04:55:20;10.05;;;5.15;;
75169;SDS011;63749;49.186;9.222;2023-01-29T04:58:11;11.18;;;4.90;;
75169;SDS011;63749;49.186;9.222;2023-01-29T05:00:51;12.40;;;5.50;;
75169;SDS011;63749;49.186;9.222;2023-01-29T05:03:18;12.50;;;5.80;;
75169;SDS011;63749;49.186;9.222;2023-01-29T05:05:46;12.30;;;5.45;;
75169;SDS011;63749;49.186;9.222;2023-01-29T05:08:15;9.65;;;5.22;;
75169;SDS011;63749;49.186;9.222;2023-01-29T05:10:43;10.05;;;5.07;;
75169;SDS011;63749;49.186;9.222;2023-01-29T05:13:11;9.30;;;4.90;;
75169;SDS011;63749;49.186;9.222;2023-01-29T05:15:39;11.63;;;5.73;;
75169;SDS011;63749;49.186;9.222;2023-01-29T05:18:24;9.45;;;4.80;;
75169;SDS011;63749;49.186;9.222;2023-01-29T05:20:50;11.50;;;5.47;;
75169;SDS011;63749;49.186;9.222;2023-01-29T05:23:20;11.23;;;5.50;;
75169;SDS011;63749;49.186;9.222;2023-01-29T05:25:47;10.63;;;5.15;;
75169;SDS011;63749;49.186;9.222;2023-01-29T05:28:14;11.32;;;5.32;;
75169;SDS011;63749;49.186;9.222;2023-01-29T05:30:41;10.40;;;5.82;;
75169;SDS011;63749;49.186;9.222;2023-01-29T05:33:13;9.27;;;5.43;;
75169;SDS011;63749;49.186;9.222;2023-01-29T05:35:41;10.63;;;5.40;;
75169;SDS011;63749;49.186;9.222;2023-01-29T05:38:06;11.50;;;5.75;;
75169;SDS011;63749;49.186;9.222;2023-01-29T05:40:32;10.47;;;5.50;;
75169;SDS011;63749;49.186;9.222;2023-01-29T05:42:57;12.27;;;5.22;;
75169;SDS011;63749;49.186;9.222;2023-01-29T05:45:23;10.80;;;5.90;;
75169;SDS011;63749;49.186;9.222;2023-01-29T05:47:48;12.17;;;5.53;;
75169;SDS011;63749;49.186;9.222;2023-01-29T05:50:14;10.43;;;5.73;;
75169;SDS011;63749;49.186;9.222;2023-01-29T05:52:40;11.27;;;5.90;;
75169;SDS011;63749;49.186;9.222;2023-01-29T05:55:06;11.15;;;5.60;;
75169;SDS011;63749;49.186;9.222;2023-01-29T05:57:33;9.73;;;5.35;;
75169;SDS011;63749;49.186;9.222;2023-01-29T05:59:58;11.50;;;5.90;;
75169;SDS011;63749;49.186;9.222;2023-01-29T06:02:24;13.40;;;6.10;;
75169;SDS011;63749;49.186;9.222;2023-01-29T06:04:50;13.10;;;6.17;;
75169;SDS011;63749;49.186;9.222;2023-01-29T06:07:16;13.18;;;6.25;;
75169;SDS011;63749;49.186;9.222;2023-01-29T06:09:42;10.45;;;5.82;;
75169;SDS011;63749;49.186;9.222;2023-01-29T06:12:08;10.97;;;5.70;;
75169;SDS011;63749;49.186;9.222;2023-01-29T06:14:33;12.37;;;5.63;;
75169;SDS011;63749;49.186;9.222;2023-01-29T06:16:58;12.87;;;6.40;;
75169;SDS011;63749;49.186;9.222;2023-01-29T06:19:24;11.27;;;5.97;;
75169;SDS011;63749;49.186;9.222;2023-01-29T06:21:49;12.33;;;5.93;;
75169;SDS011;63749;49.186;9.222;2023-01-29T06:24:15;12.03;;;5.93;;
75169;SDS011;63749;49.186;9.222;2023-01-29T06:26:40;14.07;;;6.10;;
75169;SDS011;63749;49.186;9.222;2023-01-29T06:29:05;12.57;;;5.83;;
75169;SDS011;63749;49.186;9.222;2023-01-29T06:31:31;11.52;;;6.03;;
75169;SDS011;63749;49.186;9.222;2023-01-29T06:33:56;12.60;;;6.40;;
75169;SDS011;63749;49.186;9.222;2023-01-29T06:36:22;12.47;;;5.60;;
75169;SDS011;63749;49.186;9.222;2023-01-29T06:38:47;12.50;;;6.37;;
75169;SDS011;63749;49.186;9.222;2023-01-29T06:41:14;12.75;;;6.00;;
75169;SDS011;63749;49.186;9.222;2023-01-29T06:43:45;10.83;;;6.03;;
75169;SDS011;63749;49.186;9.222;2023-01-29T06:46:10;10.98;;;5.75;;
75169;SDS011;63749;49.186;9.222;2023-01-29T06:48:35;12.00;;;6.00;;
75169;SDS011;63749;49.186;9.222;2023-01-29T06:51:02;12.80;;;6.47;;
75169;SDS011;63749;49.186;9.222;2023-01-29T06:53:28;13.00;;;6.22;;
75169;SDS011;63749;49.186;9.222;2023-01-29T06:55:54;12.35;;;6.45;;
75169;SDS011;63749;49.186;9.222;2023-01-29T06:58:20;13.30;;;6.30;;
75169;SDS011;63749;49.186;9.222;2023-01-29T07:00:46;13.13;;;6.03;;
75169;SDS011;63749;49.186;9.222;2023-01-29T07:03:11;12.37;;;6.90;;
75169;SDS011;63749;49.186;9.222;2023-01-29T07:05:37;11.10;;;5.80;;
75169;SDS011;63749;49.186;9.222;2023-01-29T07:08:02;13.17;;;6.27;;
75169;SDS011;63749;49.186;9.222;2023-01-29T07:10:28;12.30;;;6.38;;
75169;SDS011;63749;49.186;9.222;2023-01-29T07:12:53;12.13;;;5.90;;
75169;SDS011;63749;49.186;9.222;2023-01-29T07:15:19;13.68;;;6.38;;
75169;SDS011;63749;49.186;9.222;2023-01-29T07:18:01;12.30;;;6.10;;
75169;SDS011;63749;49.186;9.222;2023-01-29T07:20:36;11.70;;;6.32;;
75169;SDS011;63749;49.186;9.222;2023-01-29T07:23:05;11.63;;;6.28;;
75169;SDS011;63749;49.186;9.222;2023-01-29T07:25:33;13.82;;;6.55;;
75169;SDS011;63749;49.186;9.222;2023-01-29T07:28:01;12.77;;;6.27;;
75169;SDS011;63749;49.186;9.222;2023-01-29T07:30:28;11.10;;;6.00;;
75169;SDS011;63749;49.186;9.222;2023-01-29T07:32:53;12.20;;;5.70;;
75169;SDS011;63749;49.186;9.222;2023-01-29T07:35:19;11.48;;;5.78;;
75169;SDS011;63749;49.186;9.222;2023-01-29T07:37:47;12.27;;;5.97;;
75169;SDS011;63749;49.186;9.222;2023-01-29T07:40:14;16.05;;;6.55;;
75169;SDS011;63749;49.186;9.222;2023-01-29T07:42:39;13.67;;;6.73;;
75169;SDS011;63749;49.186;9.222;2023-01-29T07:45:07;12.85;;;6.10;;
75169;SDS011;63749;49.186;9.222;2023-01-29T07:47:33;12.32;;;6.68;;
75169;SDS011;63749;49.186;9.222;2023-01-29T07:49:58;11.90;;;6.30;;
75169;SDS011;63749;49.186;9.222;2023-01-29T07:52:24;14.10;;;6.80;;
75169;SDS011;63749;49.186;9.222;2023-01-29T07:54:49;13.73;;;6.37;;
75169;SDS011;63749;49.186;9.222;2023-01-29T07:57:14;15.90;;;7.60;;
75169;SDS011;63749;49.186;9.222;2023-01-29T07:59:40;13.50;;;6.60;;
75169;SDS011;63749;49.186;9.222;2023-01-29T08:02:05;12.73;;;6.33;;
75169;SDS011;63749;49.186;9.222;2023-01-29T08:04:30;11.60;;;5.97;;
75169;SDS011;63749;49.186;9.222;2023-01-29T08:06:56;9.93;;;5.83;;
75169;SDS011;63749;49.186;9.222;2023-01-29T08:09:21;10.47;;;5.80;;
75169;SDS011;63749;49.186;9.222;2023-01-29T08:11:46;12.87;;;6.23;;
75169;SDS011;63749;49.186;9.222;2023-01-29T08:14:12;13.05;;;6.40;;
75169;SDS011;63749;49.186;9.222;2023-01-29T08:16:37;12.13;;;6.50;;
75169;SDS011;63749;49.186;9.222;2023-01-29T08:19:02;13.73;;;6.57;;
75169;SDS011;63749;49.186;9.222;2023-01-29T08:21:28;12.93;;;6.90;;
75169;SDS011;63749;49.186;9.222;2023-01-29T08:23:53;14.40;;;7.30;;
75169;SDS011;63749;49.186;9.222;2023-01-29T08:26:19;14.75;;;7.97;;
75169;SDS011;63749;49.186;9.222;2023-01-29T08:28:44;23.60;;;12.30;;
75169;SDS011;63749;49.186;9.222;2023-01-29T08:31:13;15.40;;;8.20;;
75169;SDS011;63749;49.186;9.222;2023-01-29T08:33:39;17.17;;;7.63;;
75169;SDS011;63749;49.186;9.222;2023-01-29T08:36:05;15.77;;;7.77;;
75169;SDS011;63749;49.186;9.222;2023-01-29T08:38:31;16.42;;;7.70;;
75169;SDS011;63749;49.186;9.222;2023-01-29T08:40:56;16.23;;;8.13;;
75169;SDS011;63749;49.186;9.222;2023-01-29T08:43:22;16.70;;;8.27;;
75169;SDS011;63749;49.186;9.222;2023-01-29T08:45:47;12.27;;;5.93;;
75169;SDS011;63749;49.186;9.222;2023-01-29T08:48:12;14.67;;;7.37;;
75169;SDS011;63749;49.186;9.222;2023-01-29T08:50:38;13.87;;;7.60;;
75169;SDS011;63749;49.186;9.222;2023-01-29T08:53:04;14.38;;;7.35;;
75169;SDS011;63749;49.186;9.222;2023-01-29T08:55:37;13.73;;;7.20;;
75169;SDS011;63749;49.186;9.222;2023-01-29T08:58:03;12.60;;;6.80;;
75169;SDS011;63749;49.186;9.222;2023-01-29T09:00:30;12.50;;;6.90;;
75169;SDS011;63749;49.186;9.222;2023-01-29T09:02:56;13.70;;;7.32;;
75169;SDS011;63749;49.186;9.222;2023-01-29T09:05:23;14.77;;;7.40;;
75169;SDS011;63749;49.186;9.222;2023-01-29T09:07:49;13.03;;;6.67;;
75169;SDS011;63749;49.186;9.222;2023-01-29T09:10:14;12.33;;;6.27;;
75169;SDS011;63749;49.186;9.222;2023-01-29T09:12:40;11.38;;;5.90;;
75169;SDS011;63749;49.186;9.222;2023-01-29T09:15:06;10.23;;;5.57;;
75169;SDS011;63749;49.186;9.222;2023-01-29T09:17:33;11.85;;;6.45;;
75169;SDS011;63749;49.186;9.222;2023-01-29T09:19:59;8.20;;;4.80;;
75169;SDS011;63749;49.186;9.222;2023-01-29T09:22:24;6.65;;;3.63;;
75169;SDS011;63749;49.186;9.222;2023-01-29T09:24:50;9.87;;;4.90;;
75169;SDS011;63749;49.186;9.222;2023-01-29T09:27:15;19.73;;;8.60;;
75169;SDS011;63749;49.186;9.222;2023-01-29T09:29:41;10.37;;;5.07;;
75169;SDS011;63749;49.186;9.222;2023-01-29T09:32:06;7.90;;;4.33;;
75169;SDS011;63749;49.186;9.222;2023-01-29T09:34:31;9.33;;;4.70;;
75169;SDS011;63749;49.186;9.222;2023-01-29T09:36:57;8.13;;;4.30;;
75169;SDS011;63749;49.186;9.222;2023-01-29T09:39:22;7.97;;;4.57;;
75169;SDS011;63749;49.186;9.222;2023-01-29T09:47:08;10.00;;;5.47;;
75169;SDS011;63749;49.186;9.222;2023-01-29T09:49:39;11.32;;;5.90;;
75169;SDS011;63749;49.186;9.222;2023-01-29T09:57:16;11.00;;;6.32;;
75169;SDS011;63749;49.186;9.222;2023-01-29T09:59:46;15.45;;;6.95;;
75169;SDS011;63749;49.186;9.222;2023-01-29T10:05:54;12.10;;;6.63;;
75169;SDS011;63749;49.186;9.222;2023-01-29T10:10:37;24.20;;;8.95;;
75169;SDS011;63749;49.186;9.222;2023-01-29T10:25:08;10.15;;;5.13;;
75169;SDS011;63749;49.186;9.222;2023-01-29T10:27:37;9.77;;;5.00;;
75169;SDS011;63749;49.186;9.222;2023-01-29T10:30:16;8.48;;;4.78;;
75169;SDS011;63749;49.186;9.222;2023-01-29T10:32:53;7.55;;;4.38;;
75169;SDS011;63749;49.186;9.222;2023-01-29T10:35:22;7.25;;;4.05;;
75169;SDS011;63749;49.186;9.222;2023-01-29T10:37:53;8.05;;;4.80;;
75169;SDS011;63749;49.186;9.222;2023-01-29T10:40:23;7.97;;;4.90;;
75169;SDS011;63749;49.186;9.222;2023-01-29T10:49:26;8.43;;;4.60;;
75169;SDS011;63749;49.186;9.222;2023-01-29T10:55:01;9.47;;;5.53;;
75169;SDS011;63749;49.186;9.222;2023-01-29T10:58:00;11.07;;;5.97;;
75169;SDS011;63749;49.186;9.222;2023-01-29T11:00:47;12.30;;;6.70;;
75169;SDS011;63749;49.186;9.222;2023-01-29T11:03:15;9.73;;;5.72;;
75169;SDS011;63749;49.186;9.222;2023-01-29T11:05:50;8.70;;;5.32;;
75169;SDS011;63749;49.186;9.222;2023-01-29T11:08:23;9.17;;;5.67;;
75169;SDS011;63749;49.186;9.222;2023-01-29T11:11:00;8.70;;;5.13;;
75169;SDS011;63749;49.186;9.222;2023-01-29T11:13:32;8.93;;;5.15;;
75169;SDS011;63749;49.186;9.222;2023-01-29T11:16:11;10.20;;;5.35;;
75169;SDS011;63749;49.186;9.222;2023-01-29T11:18:53;8.80;;;5.07;;
75169;SDS011;63749;49.186;9.222;2023-01-29T11:21:19;8.60;;;5.10;;
75169;SDS011;63749;49.186;9.222;2023-01-29T11:23:45;8.73;;;5.03;;
75169;SDS011;63749;49.186;9.222;2023-01-29T11:26:11;10.37;;;6.10;;
75169;SDS011;63749;49.186;9.222;2023-01-29T11:28:42;9.00;;;5.70;;
75169;SDS011;63749;49.186;9.222;2023-01-29T11:34:04;9.40;;;5.70;;
75169;SDS011;63749;49.186;9.222;2023-01-29T11:36:37;8.80;;;5.10;;
75169;SDS011;63749;49.186;9.222;2023-01-29T11:39:14;9.47;;;5.43;;
75169;SDS011;63749;49.186;9.222;2023-01-29T11:44:26;11.80;;;6.32;;
75169;SDS011;63749;49.186;9.222;2023-01-29T11:47:15;7.72;;;4.78;;
75169;SDS011;63749;49.186;9.222;2023-01-29T11:49:47;8.48;;;5.07;;
75169;SDS011;63749;49.186;9.222;2023-01-29T11:52:14;9.07;;;5.07;;
75169;SDS011;63749;49.186;9.222;2023-01-29T11:54:53;8.38;;;5.00;;
75169;SDS011;63749;49.186;9.222;2023-01-29T11:57:25;10.70;;;5.70;;
75169;SDS011;63749;49.186;9.222;2023-01-29T11:59:54;8.10;;;4.30;;
75169;SDS011;63749;49.186;9.222;2023-01-29T12:02:28;7.75;;;4.40;;
75169;SDS011;63749;49.186;9.222;2023-01-29T12:05:20;7.67;;;4.53;;
75169;SDS011;63749;49.186;9.222;2023-01-29T12:07:47;9.63;;;4.97;;
75169;SDS011;63749;49.186;9.222;2023-01-29T12:13:25;7.75;;;4.57;;
75169;SDS011;63749;49.186;9.222;2023-01-29T12:16:08;7.85;;;4.82;;
75169;SDS011;63749;49.186;9.222;2023-01-29T12:18:43;7.37;;;4.50;;
75169;SDS011;63749;49.186;9.222;2023-01-29T12:23:54;7.88;;;4.88;;
75169;SDS011;63749;49.186;9.222;2023-01-29T12:26:37;8.25;;;5.13;;
75169;SDS011;63749;49.186;9.222;2023-01-29T12:34:34;8.68;;;4.65;;
75169;SDS011;63749;49.186;9.222;2023-01-29T12:40:04;9.07;;;5.15;;
75169;SDS011;63749;49.186;9.222;2023-01-29T12:42:36;9.40;;;5.00;;
75169;SDS011;63749;49.186;9.222;2023-01-29T12:45:05;7.73;;;4.83;;
75169;SDS011;63749;49.186;9.222;2023-01-29T12:47:36;9.80;;;4.88;;
75169;SDS011;63749;49.186;9.222;2023-01-29T12:50:17;9.63;;;5.70;;
75169;SDS011;63749;49.186;9.222;2023-01-29T12:52:47;9.00;;;5.18;;
75169;SDS011;63749;49.186;9.222;2023-01-29T12:55:17;9.00;;;5.22;;
75169;SDS011;63749;49.186;9.222;2023-01-29T12:57:48;9.93;;;5.33;;
75169;SDS011;63749;49.186;9.222;2023-01-29T13:00:22;9.82;;;5.20;;
75169;SDS011;63749;49.186;9.222;2023-01-29T13:05:44;9.63;;;5.40;;
75169;SDS011;63749;49.186;9.222;2023-01-29T13:08:20;9.25;;;5.78;;
75169;SDS011;63749;49.186;9.222;2023-01-29T13:10:51;8.97;;;5.33;;
75169;SDS011;63749;49.186;9.222;2023-01-29T13:15:59;8.48;;;5.32;;
75169;SDS011;63749;49.186;9.222;2023-01-29T13:18:32;9.35;;;5.75;;
75169;SDS011;63749;49.186;9.222;2023-01-29T13:21:04;9.55;;;5.25;;
75169;SDS011;63749;49.186;9.222;2023-01-29T13:23:33;10.73;;;6.00;;
75169;SDS011;63749;49.186;9.222;2023-01-29T13:26:03;10.35;;;6.13;;
75169;SDS011;63749;49.186;9.222;2023-01-29T13:28:29;10.48;;;5.70;;
75169;SDS011;63749;49.186;9.222;2023-01-29T13:33:58;10.63;;;5.93;;
75169;SDS011;63749;49.186;9.222;2023-01-29T13:36:36;10.98;;;5.60;;
75169;SDS011;63749;49.186;9.222;2023-01-29T13:39:07;10.50;;;6.13;;
75169;SDS011;63749;49.186;9.222;2023-01-29T13:41:44;11.23;;;6.20;;
75169;SDS011;63749;49.186;9.222;2023-01-29T13:44:23;10.17;;;6.00;;
75169;SDS011;63749;49.186;9.222;2023-01-29T13:46:57;10.40;;;6.15;;
75169;SDS011;63749;49.186;9.222;2023-01-29T13:49:29;11.00;;;5.82;;
75169;SDS011;63749;49.186;9.222;2023-01-29T13:57:34;11.60;;;6.00;;
75169;SDS011;63749;49.186;9.222;2023-01-29T14:02:46;10.17;;;6.10;;
75169;SDS011;63749;49.186;9.222;2023-01-29T14:05:40;10.02;;;6.00;;
75169;SDS011;63749;49.186;9.222;2023-01-29T14:10:33;11.17;;;5.90;;
75169;SDS011;63749;49.186;9.222;2023-01-29T14:15:26;12.33;;;5.93;;
75169;SDS011;63749;49.186;9.222;2023-01-29T14:17:55;10.73;;;6.25;;
75169;SDS011;63749;49.186;9.222;2023-01-29T14:21:03;10.85;;;5.80;;
75169;SDS011;63749;49.186;9.222;2023-01-29T14:25:58;10.73;;;6.00;;
75169;SDS011;63749;49.186;9.222;2023-01-29T14:28:25;10.95;;;6.13;;
75169;SDS011;63749;49.186;9.222;2023-01-29T14:30:53;9.25;;;5.60;;
75169;SDS011;63749;49.186;9.222;2023-01-29T14:35:50;11.43;;;6.70;;
75169;SDS011;63749;49.186;9.222;2023-01-29T14:38:17;10.10;;;6.50;;
75169;SDS011;63749;49.186;9.222;2023-01-29T14:40:44;10.27;;;6.03;;
75169;SDS011;63749;49.186;9.222;2023-01-29T14:43:17;10.02;;;6.50;;
75169;SDS011;63749;49.186;9.222;2023-01-29T14:45:45;10.05;;;6.43;;
75169;SDS011;63749;49.186;9.222;2023-01-29T14:48:37;9.00;;;6.13;;
75169;SDS011;63749;49.186;9.222;2023-01-29T14:51:10;9.25;;;6.28;;
75169;SDS011;63749;49.186;9.222;2023-01-29T14:53:45;8.23;;;6.07;;
75169;SDS011;63749;49.186;9.222;2023-01-29T14:56:16;10.60;;;6.40;;
75169;SDS011;63749;49.186;9.222;2023-01-29T14:59:09;10.05;;;6.82;;
75169;SDS011;63749;49.186;9.222;2023-01-29T15:01:38;9.25;;;6.63;;
75169;SDS011;63749;49.186;9.222;2023-01-29T15:04:05;8.40;;;6.00;;
75169;SDS011;63749;49.186;9.222;2023-01-29T15:14:41;8.90;;;6.75;;
75169;SDS011;63749;49.186;9.222;2023-01-29T15:17:17;9.38;;;6.40;;
75169;SDS011;63749;49.186;9.222;2023-01-29T15:19:48;8.70;;;5.73;;
75169;SDS011;63749;49.186;9.222;2023-01-29T15:22:20;9.50;;;6.00;;
75169;SDS011;63749;49.186;9.222;2023-01-29T15:25:00;10.17;;;5.50;;
75169;SDS011;63749;49.186;9.222;2023-01-29T15:27:31;10.43;;;6.10;;
75169;SDS011;63749;49.186;9.222;2023-01-29T15:29:58;10.63;;;6.05;;
75169;SDS011;63749;49.186;9.222;2023-01-29T15:32:26;10.68;;;6.20;;
75169;SDS011;63749;49.186;9.222;2023-01-29T15:35:00;10.87;;;6.07;;
75169;SDS011;63749;49.186;9.222;2023-01-29T15:37:32;10.07;;;5.95;;
75169;SDS011;63749;49.186;9.222;2023-01-29T15:39:59;11.07;;;5.95;;
75169;SDS011;63749;49.186;9.222;2023-01-29T15:42:26;11.10;;;6.20;;
75169;SDS011;63749;49.186;9.222;2023-01-29T15:44:53;12.00;;;6.10;;
75169;SDS011;63749;49.186;9.222;2023-01-29T15:47:19;11.00;;;6.17;;
75169;SDS011;63749;49.186;9.222;2023-01-29T15:49:48;11.75;;;6.20;;
75169;SDS011;63749;49.186;9.222;2023-01-29T15:52:17;12.77;;;6.20;;
75169;SDS011;63749;49.186;9.222;2023-01-29T15:54:53;11.88;;;6.05;;
75169;SDS011;63749;49.186;9.222;2023-01-29T15:57:24;11.27;;;6.03;;
75169;SDS011;63749;49.186;9.222;2023-01-29T15:59:53;11.45;;;5.65;;
75169;SDS011;63749;49.186;9.222;2023-01-29T16:04:55;11.37;;;5.40;;
75169;SDS011;63749;49.186;9.222;2023-01-29T16:07:21;11.45;;;5.90;;
75169;SDS011;63749;49.186;9.222;2023-01-29T16:09:47;11.63;;;6.13;;
75169;SDS011;63749;49.186;9.222;2023-01-29T16:12:13;11.57;;;5.80;;
75169;SDS011;63749;49.186;9.222;2023-01-29T16:14:39;11.53;;;5.90;;
75169;SDS011;63749;49.186;9.222;2023-01-29T16:17:21;12.70;;;6.40;;
75169;SDS011;63749;49.186;9.222;2023-01-29T16:19:55;11.27;;;6.10;;
75169;SDS011;63749;49.186;9.222;2023-01-29T16:22:24;15.05;;;6.35;;
75169;SDS011;63749;49.186;9.222;2023-01-29T16:24:54;14.48;;;7.28;;
75169;SDS011;63749;49.186;9.222;2023-01-29T16:27:19;20.90;;;7.53;;
75169;SDS011;63749;49.186;9.222;2023-01-29T16:29:45;16.27;;;8.77;;
75169;SDS011;63749;49.186;9.222;2023-01-29T16:32:10;28.13;;;14.30;;
75169;SDS011;63749;49.186;9.222;2023-01-29T16:34:41;15.82;;;8.00;;
75169;SDS011;63749;49.186;9.222;2023-01-29T16:39:56;14.57;;;6.75;;
75169;SDS011;63749;49.186;9.222;2023-01-29T16:42:23;20.00;;;8.27;;
75169;SDS011;63749;49.186;9.222;2023-01-29T16:44:57;20.90;;;9.07;;
75169;SDS011;63749;49.186;9.222;2023-01-29T16:50:01;16.60;;;8.05;;
75169;SDS011;63749;49.186;9.222;2023-01-29T16:52:30;18.57;;;8.90;;
75169;SDS011;63749;49.186;9.222;2023-01-29T16:57:35;21.88;;;10.35;;
75169;SDS011;63749;49.186;9.222;2023-01-29T17:00:05;27.77;;;12.63;;
75169;SDS011;63749;49.186;9.222;2023-01-29T17:02:35;32.85;;;14.25;;
75169;SDS011;63749;49.186;9.222;2023-01-29T17:05:03;28.23;;;12.27;;
75169;SDS011;63749;49.186;9.222;2023-01-29T17:07:32;21.65;;;10.40;;
75169;SDS011;63749;49.186;9.222;2023-01-29T17:10:00;20.05;;;9.63;;
75169;SDS011;63749;49.186;9.222;2023-01-29T17:12:28;19.33;;;9.30;;
75169;SDS011;63749;49.186;9.222;2023-01-29T17:14:59;21.50;;;9.50;;
75169;SDS011;63749;49.186;9.222;2023-01-29T17:17:33;21.03;;;9.60;;
75169;SDS011;63749;49.186;9.222;2023-01-29T17:20:13;20.17;;;9.48;;
75169;SDS011;63749;49.186;9.222;2023-01-29T17:22:40;20.02;;;9.60;;
75169;SDS011;63749;49.186;9.222;2023-01-29T17:25:05;19.97;;;9.53;;
75169;SDS011;63749;49.186;9.222;2023-01-29T17:27:31;20.13;;;9.75;;
75169;SDS011;63749;49.186;9.222;2023-01-29T17:29:57;20.60;;;9.40;;
75169;SDS011;63749;49.186;9.222;2023-01-29T17:32:22;19.92;;;9.63;;
75169;SDS011;63749;49.186;9.222;2023-01-29T17:34:48;19.27;;;9.30;;
75169;SDS011;63749;49.186;9.222;2023-01-29T17:37:14;21.70;;;10.03;;
75169;SDS011;63749;49.186;9.222;2023-01-29T17:39:41;23.65;;;11.43;;
75169;SDS011;63749;49.186;9.222;2023-01-29T17:42:09;34.50;;;15.75;;
75169;SDS011;63749;49.186;9.222;2023-01-29T17:44:38;31.67;;;14.35;;